createdAt,value
2019-06-01T00:00:11.115Z,14.50
2019-06-01T00:02:33.158Z,15.30
2019-06-01T00:05:04.031Z,15.07
2019-06-01T00:07:34.325Z,14.20
2019-06-01T00:10:09.150Z,14.80
2019-06-01T00:12:39.407Z,15.47
2019-06-01T00:15:09.858Z,15.90
2019-06-01T00:17:41.754Z,16.43
2019-06-01T00:20:12.248Z,15.13
2019-06-01T00:22:43.283Z,15.00
2019-06-01T00:25:13.654Z,15.67
2019-06-01T00:27:44.704Z,14.90
2019-06-01T00:30:26.606Z,15.53
2019-06-01T00:32:47.327Z,14.53
2019-06-01T00:35:17.620Z,14.77
2019-06-01T00:37:47.922Z,15.90
2019-06-01T00:40:18.482Z,14.23
2019-06-01T00:42:48.754Z,16.23
2019-06-01T00:45:20.331Z,16.70
2019-06-01T00:47:50.908Z,17.63
2019-06-01T00:50:21.367Z,19.43
2019-06-01T00:52:51.673Z,19.57
2019-06-01T00:55:21.940Z,17.20
2019-06-01T00:57:53.870Z,18.90
2019-06-01T01:00:24.234Z,19.30
2019-06-01T01:02:54.504Z,18.57
2019-06-01T01:05:24.806Z,19.80
2019-06-01T01:07:55.176Z,23.27
2019-06-01T01:10:25.444Z,19.33
2019-06-01T01:13:09.519Z,17.43
2019-06-01T01:15:39.826Z,19.10
2019-06-01T01:18:11.765Z,18.60
2019-06-01T01:20:42.033Z,17.17
2019-06-01T01:23:12.368Z,18.93
2019-06-01T01:25:42.635Z,19.50
2019-06-01T01:28:12.941Z,20.10
2019-06-01T01:30:59.985Z,20.20
2019-06-01T01:33:15.680Z,20.23
2019-06-01T01:35:45.961Z,20.40
2019-06-01T01:38:16.242Z,20.47
2019-06-01T01:40:46.503Z,20.97
2019-06-01T01:43:16.804Z,18.40
2019-06-01T01:45:47.083Z,19.57
2019-06-01T01:48:17.390Z,21.20
2019-06-01T01:50:47.637Z,19.93
2019-06-01T01:53:19.312Z,21.60
2019-06-01T01:55:50.855Z,20.50
2019-06-01T01:58:21.424Z,21.37
2019-06-01T02:00:53.496Z,21.90
2019-06-01T02:03:23.787Z,21.80
2019-06-01T02:05:54.925Z,21.73
2019-06-01T02:08:25.233Z,23.70
2019-06-01T02:10:55.560Z,23.03
2019-06-01T02:13:25.842Z,21.07
2019-06-01T02:15:56.267Z,21.57
2019-06-01T02:18:26.560Z,22.10
2019-06-01T02:20:56.842Z,20.50
2019-06-01T02:23:27.141Z,20.63
2019-06-01T02:25:57.435Z,20.80
2019-06-01T02:28:27.718Z,20.70
2019-06-01T02:30:58.025Z,21.13
2019-06-01T02:33:28.676Z,20.23
2019-06-01T02:36:00.630Z,22.43
2019-06-01T02:38:30.908Z,18.80
2019-06-01T02:41:02.722Z,20.57
2019-06-01T02:43:33.187Z,18.23
2019-06-01T02:46:06.592Z,19.30
2019-06-01T02:48:36.525Z,19.87
2019-06-01T02:51:06.819Z,19.10
2019-06-01T02:53:37.081Z,19.23
2019-06-01T02:56:07.354Z,20.60
2019-06-01T02:58:37.645Z,20.80
2019-06-01T03:01:32.875Z,19.37
2019-06-01T03:04:07.776Z,21.27
2019-06-01T03:06:40.938Z,22.97
2019-06-01T03:09:11.909Z,21.63
2019-06-01T03:11:42.571Z,20.80
2019-06-01T03:14:13.676Z,20.87
2019-06-01T03:16:44.214Z,20.93
2019-06-01T03:19:15.516Z,19.53
2019-06-01T03:21:48.036Z,21.90
2019-06-01T03:24:18.349Z,21.70
2019-06-01T03:26:48.648Z,19.87
2019-06-01T03:29:20.167Z,20.97
2019-06-01T03:31:50.460Z,21.77
2019-06-01T03:34:20.724Z,23.73
2019-06-01T03:36:51.000Z,22.33
2019-06-01T03:39:21.292Z,19.77
2019-06-01T03:41:51.598Z,22.30
2019-06-01T03:44:21.882Z,21.60
2019-06-01T03:46:52.152Z,22.93
2019-06-01T03:49:22.442Z,24.37
2019-06-01T03:51:52.789Z,22.43
2019-06-01T03:54:23.101Z,24.33
2019-06-01T03:56:53.360Z,23.43
2019-06-01T03:59:24.033Z,21.20
2019-06-01T04:01:54.351Z,22.10
2019-06-01T04:04:24.597Z,22.87
2019-06-01T04:06:55.027Z,20.67
2019-06-01T04:09:25.433Z,22.50
2019-06-01T04:11:55.736Z,21.20
2019-06-01T04:14:26.009Z,22.87
2019-06-01T04:16:56.308Z,21.37
2019-06-01T04:19:26.565Z,23.10
2019-06-01T04:21:56.863Z,23.20
2019-06-01T04:24:27.120Z,21.90
2019-06-01T04:26:57.418Z,23.60
2019-06-01T04:29:27.691Z,21.63
2019-06-01T04:31:57.960Z,23.43
2019-06-01T04:34:28.273Z,23.53
2019-06-01T04:36:58.533Z,23.57
2019-06-01T04:39:28.837Z,21.20
2019-06-01T04:41:59.104Z,23.50
2019-06-01T04:44:29.375Z,24.30
2019-06-01T04:46:59.678Z,24.90
2019-06-01T04:49:29.980Z,24.00
2019-06-01T04:52:00.288Z,25.53
2019-06-01T04:54:30.550Z,26.90
2019-06-01T04:57:00.858Z,27.60
2019-06-01T04:59:31.081Z,28.40
2019-06-01T05:02:01.391Z,27.20
2019-06-01T05:04:32.754Z,27.13
2019-06-01T05:07:03.068Z,27.83
2019-06-01T05:09:33.325Z,28.30
2019-06-01T05:12:03.604Z,28.53
2019-06-01T05:14:33.897Z,28.40
2019-06-01T05:17:04.196Z,26.63
2019-06-01T05:19:34.486Z,26.10
2019-06-01T05:22:04.757Z,26.83
2019-06-01T05:24:35.010Z,27.00
2019-06-01T05:27:05.314Z,27.10
2019-06-01T05:29:35.584Z,26.00
2019-06-01T05:32:05.956Z,25.73
2019-06-01T05:34:36.256Z,24.83
2019-06-01T05:37:08.401Z,24.23
2019-06-01T05:39:38.527Z,23.10
2019-06-01T05:42:08.946Z,26.23
2019-06-01T05:44:39.199Z,24.37
2019-06-01T05:47:10.046Z,24.17
2019-06-01T05:49:40.371Z,25.33
2019-06-01T05:52:10.636Z,24.93
2019-06-01T05:54:40.929Z,24.43
2019-06-01T05:57:11.186Z,24.33
2019-06-01T05:59:41.454Z,25.37
2019-06-01T06:02:11.718Z,25.30
2019-06-01T06:04:41.978Z,24.17
2019-06-01T06:07:12.810Z,24.27
2019-06-01T06:09:43.475Z,25.90
2019-06-01T06:12:15.284Z,23.17
2019-06-01T06:14:45.844Z,23.30
2019-06-01T06:17:18.070Z,21.50
2019-06-01T06:19:48.387Z,21.87
2019-06-01T06:22:18.643Z,22.03
2019-06-01T06:24:48.899Z,21.17
2019-06-01T06:27:19.162Z,20.53
2019-06-01T06:29:49.460Z,21.13
2019-06-01T06:32:19.785Z,22.23
2019-06-01T06:34:50.085Z,22.37
2019-06-01T06:37:20.339Z,23.67
2019-06-01T06:39:50.626Z,24.00
2019-06-01T06:42:20.909Z,25.10
2019-06-01T06:44:51.220Z,23.67
2019-06-01T06:47:21.496Z,24.50
2019-06-01T06:49:51.761Z,24.93
2019-06-01T06:52:22.041Z,25.60
2019-06-01T06:54:52.348Z,24.83
2019-06-01T06:57:22.580Z,25.07
2019-06-01T06:59:52.866Z,23.20
2019-06-01T07:02:23.158Z,22.77
2019-06-01T07:04:53.461Z,21.63
2019-06-01T07:07:23.821Z,22.47
2019-06-01T07:09:54.058Z,22.33
2019-06-01T07:12:25.323Z,19.73
2019-06-01T07:14:55.892Z,18.00
2019-06-01T07:17:27.612Z,18.57
2019-06-01T07:19:58.014Z,17.20
2019-06-01T07:22:28.297Z,18.33
2019-06-01T07:24:58.554Z,16.93
2019-06-01T07:27:28.856Z,15.83
2019-06-01T07:29:59.129Z,14.60
2019-06-01T07:32:29.440Z,14.83
2019-06-01T07:35:01.226Z,14.23
2019-06-01T07:37:32.735Z,14.17
2019-06-01T07:40:03.490Z,14.03
2019-06-01T07:42:33.749Z,12.87
2019-06-01T07:45:05.444Z,13.47
2019-06-01T07:47:35.756Z,13.37
2019-06-01T07:50:08.708Z,12.53
2019-06-01T07:52:39.011Z,12.60
2019-06-01T07:55:09.439Z,11.93
2019-06-01T07:57:43.033Z,10.97
2019-06-01T08:00:11.951Z,11.87
2019-06-01T08:02:42.200Z,11.87
2019-06-01T08:05:12.510Z,10.90
2019-06-01T08:07:42.771Z,10.83
2019-06-01T08:10:13.064Z,10.30
2019-06-01T08:12:43.565Z,10.00
2019-06-01T08:15:13.879Z,9.23
2019-06-01T08:17:44.126Z,7.77
2019-06-01T08:20:14.416Z,8.17
2019-06-01T08:22:44.690Z,7.27
2019-06-01T08:25:14.952Z,8.13
2019-06-01T08:27:45.208Z,7.37
2019-06-01T08:30:15.657Z,8.07
2019-06-01T08:32:46.086Z,7.10
2019-06-01T08:35:16.318Z,7.23
2019-06-01T08:37:46.568Z,7.80
2019-06-01T08:40:16.909Z,7.93
2019-06-01T08:42:47.150Z,7.90
2019-06-01T08:45:19.081Z,8.50
2019-06-01T08:47:49.319Z,7.40
2019-06-01T08:50:19.624Z,6.87
2019-06-01T08:52:49.894Z,6.30
2019-06-01T08:55:20.172Z,7.40
2019-06-01T08:57:50.455Z,8.03
2019-06-01T09:00:20.706Z,7.80
2019-06-01T09:02:50.962Z,9.07
2019-06-01T09:05:26.192Z,8.60
2019-06-01T09:07:53.216Z,8.37
2019-06-01T09:10:25.115Z,8.30
2019-06-01T09:12:55.644Z,7.13
2019-06-01T09:15:27.443Z,7.13
2019-06-01T09:17:58.529Z,7.57
2019-06-01T09:20:34.004Z,6.70
2019-06-01T09:23:01.050Z,7.80
2019-06-01T09:25:31.759Z,7.50
2019-06-01T09:28:02.155Z,7.03
2019-06-01T09:30:32.404Z,5.97
2019-06-01T09:33:02.658Z,6.20
2019-06-01T09:35:51.389Z,6.00
2019-06-01T09:38:04.857Z,5.83
2019-06-01T09:40:35.199Z,5.40
2019-06-01T09:43:05.474Z,5.67
2019-06-01T09:45:36.313Z,4.97
2019-06-01T09:48:06.674Z,4.67
2019-06-01T09:50:37.755Z,4.70
2019-06-01T09:53:08.094Z,5.40
2019-06-01T09:55:38.515Z,4.60
2019-06-01T09:58:08.782Z,5.30
2019-06-01T10:00:43.048Z,4.93
2019-06-01T10:03:11.314Z,4.80
2019-06-01T10:05:41.561Z,4.97
2019-06-01T10:08:11.837Z,4.80
2019-06-01T10:10:42.360Z,5.33
2019-06-01T10:13:12.687Z,5.43
2019-06-01T10:15:43.066Z,5.83
2019-06-01T10:18:13.316Z,5.60
2019-06-01T10:20:43.853Z,5.53
2019-06-01T10:23:14.175Z,5.93
2019-06-01T10:25:44.412Z,5.63
2019-06-01T10:28:14.655Z,6.10
2019-06-01T10:30:44.933Z,5.97
2019-06-01T10:33:15.163Z,5.03
2019-06-01T10:35:45.413Z,5.93
2019-06-01T10:38:15.694Z,6.30
2019-06-01T10:40:45.946Z,5.47
2019-06-01T10:43:16.258Z,5.90
2019-06-01T10:45:46.536Z,5.17
2019-06-01T10:48:16.803Z,4.93
2019-06-01T10:50:47.389Z,5.47
2019-06-01T10:53:17.655Z,5.30
2019-06-01T10:55:48.287Z,5.53
2019-06-01T10:58:18.640Z,6.23
2019-06-01T11:00:51.098Z,4.97
2019-06-01T11:03:20.850Z,5.27
2019-06-01T11:05:51.097Z,5.13
2019-06-01T11:08:21.406Z,5.40
2019-06-01T11:10:51.649Z,5.40
2019-06-01T11:13:21.931Z,6.30
2019-06-01T11:15:52.220Z,6.27
2019-06-01T11:18:22.542Z,6.47
2019-06-01T11:20:52.751Z,5.53
2019-06-01T11:23:23.046Z,5.50
2019-06-01T11:25:53.323Z,6.03
2019-06-01T11:28:23.563Z,5.57
2019-06-01T11:30:53.847Z,5.07
2019-06-01T11:33:24.092Z,4.60
2019-06-01T11:35:54.637Z,10.60
2019-06-01T11:38:24.883Z,5.47
2019-06-01T11:40:55.125Z,4.87
2019-06-01T11:43:26.627Z,4.60
2019-06-01T11:45:56.834Z,4.67
2019-06-01T11:48:27.106Z,4.13
2019-06-01T11:50:58.071Z,3.83
2019-06-01T11:53:28.312Z,3.77
2019-06-01T11:55:58.601Z,3.23
2019-06-01T11:58:28.842Z,3.43
2019-06-01T12:01:00.296Z,3.10
2019-06-01T12:03:30.577Z,3.30
2019-06-01T12:06:00.811Z,3.00
2019-06-01T12:08:34.011Z,3.70
2019-06-01T12:11:03.072Z,3.40
2019-06-01T12:13:33.315Z,3.77
2019-06-01T12:16:03.581Z,3.43
2019-06-01T12:18:33.825Z,3.47
2019-06-01T12:21:04.666Z,3.00
2019-06-01T12:23:35.249Z,3.67
2019-06-01T12:26:05.497Z,3.80
2019-06-01T12:28:35.740Z,4.17
2019-06-01T12:31:06.560Z,5.17
2019-06-01T12:33:37.974Z,27.57
2019-06-01T12:36:08.421Z,7.07
2019-06-01T12:38:51.983Z,3.10
2019-06-01T12:41:22.802Z,2.73
2019-06-01T12:44:06.875Z,3.23
2019-06-01T12:46:39.828Z,3.07
2019-06-01T12:49:10.286Z,2.40
2019-06-01T12:51:40.735Z,2.97
2019-06-01T12:54:11.007Z,3.10
2019-06-01T12:56:42.687Z,3.03
2019-06-01T12:59:15.820Z,3.20
2019-06-01T13:01:47.208Z,2.60
2019-06-01T13:04:17.617Z,2.80
2019-06-01T13:06:51.074Z,2.87
2019-06-01T13:09:19.833Z,2.93
2019-06-01T13:11:51.405Z,2.87
2019-06-01T13:14:21.717Z,2.83
2019-06-01T13:17:06.325Z,3.23
2019-06-01T13:19:23.960Z,2.80
2019-06-01T13:21:54.208Z,2.60
2019-06-01T13:24:24.763Z,2.73
2019-06-01T13:26:55.007Z,2.50
2019-06-01T13:29:25.364Z,2.27
2019-06-01T13:31:55.654Z,2.57
2019-06-01T13:34:25.938Z,2.30
2019-06-01T13:36:56.217Z,2.60
2019-06-01T13:39:26.466Z,2.47
2019-06-01T13:41:56.742Z,2.20
2019-06-01T13:44:27.024Z,2.50
2019-06-01T13:46:57.304Z,2.40
2019-06-01T13:49:27.582Z,2.37
2019-06-01T13:51:57.846Z,2.08
2019-06-01T13:54:28.387Z,2.33
2019-06-01T13:56:58.726Z,2.00
2019-06-01T13:59:29.027Z,2.10
2019-06-01T14:01:59.325Z,2.02
2019-06-01T14:04:29.612Z,1.87
2019-06-01T14:06:59.882Z,2.33
2019-06-01T14:09:30.320Z,2.00
2019-06-01T14:12:00.582Z,2.22
2019-06-01T14:14:31.016Z,2.15
2019-06-01T14:17:01.301Z,2.08
2019-06-01T14:19:31.569Z,2.37
2019-06-01T14:22:02.020Z,1.85
2019-06-01T14:24:32.258Z,1.87
2019-06-01T14:27:02.548Z,1.92
2019-06-01T14:29:32.850Z,1.42
2019-06-01T14:32:03.259Z,1.52
2019-06-01T14:34:33.756Z,1.80
2019-06-01T14:37:04.122Z,1.62
2019-06-01T14:39:34.362Z,1.90
2019-06-01T14:42:04.643Z,1.80
2019-06-01T14:44:34.893Z,1.80
2019-06-01T14:47:06.253Z,1.50
2019-06-01T14:49:36.548Z,1.62
2019-06-01T14:52:06.809Z,1.62
2019-06-01T14:54:37.068Z,1.95
2019-06-01T14:57:07.360Z,1.87
2019-06-01T14:59:37.905Z,1.70
2019-06-01T15:02:08.159Z,1.67
2019-06-01T15:04:38.440Z,1.70
2019-06-01T15:07:08.738Z,1.98
2019-06-01T15:09:39.008Z,2.00
2019-06-01T15:12:09.281Z,2.10
2019-06-01T15:14:39.578Z,3.15
2019-06-01T15:17:10.564Z,3.95
2019-06-01T15:19:43.572Z,2.10
2019-06-01T15:22:13.847Z,2.72
2019-06-01T15:24:44.326Z,2.95
2019-06-01T15:27:14.671Z,2.33
2019-06-01T15:29:44.945Z,1.85
2019-06-01T15:32:16.456Z,2.22
2019-06-01T15:35:00.912Z,2.00
2019-06-01T15:37:34.626Z,2.92
2019-06-01T15:40:10.201Z,2.25
2019-06-01T15:42:40.483Z,2.02
2019-06-01T15:45:10.812Z,2.00
2019-06-01T15:47:41.074Z,1.80
2019-06-01T15:50:11.554Z,1.67
2019-06-01T15:52:41.810Z,2.02
2019-06-01T15:55:12.093Z,1.80
2019-06-01T15:57:42.338Z,2.17
2019-06-01T16:00:12.583Z,3.00
2019-06-01T16:02:42.830Z,3.42
2019-06-01T16:05:13.076Z,2.27
2019-06-01T16:07:43.341Z,2.50
2019-06-01T16:10:13.958Z,5.60
2019-06-01T16:12:44.484Z,10.95
2019-06-01T16:15:14.749Z,4.00
2019-06-01T16:17:45.035Z,5.03
2019-06-01T16:20:15.272Z,4.67
2019-06-01T16:22:45.559Z,2.95
2019-06-01T16:25:15.814Z,2.70
2019-06-01T16:27:46.155Z,5.20
2019-06-01T16:30:16.469Z,5.05
2019-06-01T16:32:47.095Z,2.83
2019-06-01T16:35:17.350Z,2.30
2019-06-01T16:37:47.641Z,2.30
2019-06-01T16:40:17.937Z,2.02
2019-06-01T16:42:48.211Z,2.22
2019-06-01T16:45:20.155Z,2.30
2019-06-01T16:47:50.409Z,2.12
2019-06-01T16:50:20.691Z,2.10
2019-06-01T16:52:50.960Z,2.20
2019-06-01T16:55:21.233Z,2.40
2019-06-01T16:57:51.495Z,2.55
2019-06-01T17:00:23.391Z,2.47
2019-06-01T17:02:53.662Z,2.30
2019-06-01T17:05:23.940Z,2.20
2019-06-01T17:07:54.184Z,2.42
2019-06-01T17:10:26.738Z,2.37
2019-06-01T17:12:56.859Z,2.50
2019-06-01T17:15:27.305Z,2.67
2019-06-01T17:18:02.687Z,2.50
2019-06-01T17:20:43.275Z,2.58
2019-06-01T17:23:32.725Z,3.80
2019-06-01T17:25:45.482Z,3.10
2019-06-01T17:28:15.765Z,3.70
2019-06-01T17:30:47.577Z,4.60
2019-06-01T17:33:17.823Z,3.33
2019-06-01T17:35:48.448Z,2.92
2019-06-01T17:38:18.700Z,3.00
2019-06-01T17:40:48.988Z,3.17
2019-06-01T17:43:19.733Z,2.80
2019-06-01T17:45:49.978Z,3.08
2019-06-01T17:48:26.441Z,2.83
2019-06-01T17:50:52.172Z,2.90
2019-06-01T17:53:22.461Z,3.40
2019-06-01T17:55:52.705Z,3.17
2019-06-01T17:58:23.001Z,3.02
2019-06-01T18:00:53.323Z,2.83
2019-06-01T18:03:23.595Z,3.20
2019-06-01T18:05:53.880Z,3.17
2019-06-01T18:08:24.152Z,3.30
2019-06-01T18:10:55.221Z,3.15
2019-06-01T18:13:25.583Z,3.35
2019-06-01T18:15:55.874Z,3.10
2019-06-01T18:18:26.121Z,3.40
2019-06-01T18:20:56.417Z,3.12
2019-06-01T18:23:26.698Z,3.17
2019-06-01T18:25:57.045Z,3.40
2019-06-01T18:28:27.336Z,3.17
2019-06-01T18:30:57.680Z,3.27
2019-06-01T18:33:27.963Z,3.47
2019-06-01T18:35:58.226Z,3.80
2019-06-01T18:38:28.482Z,4.10
2019-06-01T18:41:09.182Z,3.57
2019-06-01T18:43:30.722Z,3.50
2019-06-01T18:46:00.964Z,3.67
2019-06-01T18:48:32.022Z,3.10
2019-06-01T18:51:02.261Z,3.80
2019-06-01T18:53:32.513Z,3.00
2019-06-01T18:56:03.995Z,3.40
2019-06-01T18:58:34.457Z,3.80
2019-06-01T19:01:04.705Z,3.80
2019-06-01T19:03:34.983Z,3.83
2019-06-01T19:06:05.284Z,4.47
2019-06-01T19:08:35.797Z,4.33
2019-06-01T19:11:06.041Z,4.70
2019-06-01T19:13:36.800Z,5.73
2019-06-01T19:16:08.015Z,6.40
2019-06-01T19:18:38.443Z,6.53
2019-06-01T19:21:08.770Z,6.77
2019-06-01T19:23:39.061Z,7.07
2019-06-01T19:26:12.268Z,7.00
2019-06-01T19:28:41.345Z,6.90
2019-06-01T19:31:11.615Z,7.07
2019-06-01T19:33:41.876Z,6.57
2019-06-01T19:36:13.016Z,6.70
2019-06-01T19:38:43.417Z,6.70
2019-06-01T19:41:15.105Z,6.30
2019-06-01T19:43:45.831Z,6.40
2019-06-01T19:46:16.113Z,6.80
2019-06-01T19:48:46.422Z,6.30
2019-06-01T19:51:17.024Z,6.47
2019-06-01T19:53:47.301Z,6.80
2019-06-01T19:56:17.549Z,6.57
2019-06-01T19:58:48.372Z,6.70
2019-06-01T20:01:18.655Z,6.67
2019-06-01T20:03:48.931Z,6.60
2019-06-01T20:06:19.237Z,7.00
2019-06-01T20:08:49.478Z,6.73
2019-06-01T20:11:21.332Z,7.13
2019-06-01T20:13:51.855Z,6.70
2019-06-01T20:16:22.938Z,7.83
2019-06-01T20:18:53.300Z,8.37
2019-06-01T20:21:23.558Z,8.10
2019-06-01T20:23:53.839Z,8.20
2019-06-01T20:26:39.315Z,8.60
2019-06-01T20:28:56.040Z,8.47
2019-06-01T20:31:26.803Z,8.50
2019-06-01T20:33:57.065Z,8.13
2019-06-01T20:36:27.331Z,8.73
2019-06-01T20:38:57.602Z,8.80
2019-06-01T20:41:28.102Z,9.30
2019-06-01T20:43:58.387Z,8.27
2019-06-01T20:46:28.639Z,8.40
2019-06-01T20:48:59.153Z,11.97
2019-06-01T20:51:29.453Z,11.83
2019-06-01T20:53:59.786Z,13.03
2019-06-01T20:56:30.073Z,15.03
2019-06-01T20:59:00.328Z,14.17
2019-06-01T21:01:30.588Z,13.00
2019-06-01T21:04:00.866Z,10.70
2019-06-01T21:06:31.169Z,11.53
2019-06-01T21:09:01.415Z,11.43
2019-06-01T21:11:31.683Z,14.47
2019-06-01T21:14:01.970Z,13.07
2019-06-01T21:16:32.262Z,16.60
2019-06-01T21:19:02.512Z,15.10
2019-06-01T21:21:32.768Z,14.80
2019-06-01T21:24:03.066Z,15.40
2019-06-01T21:26:33.351Z,16.20
2019-06-01T21:29:03.613Z,14.93
2019-06-01T21:31:33.869Z,13.23
2019-06-01T21:34:04.136Z,13.93
2019-06-01T21:36:34.426Z,13.00
2019-06-01T21:39:07.832Z,14.37
2019-06-01T21:41:38.075Z,14.93
2019-06-01T21:44:08.370Z,13.57
2019-06-01T21:46:38.649Z,13.60
2019-06-01T21:49:08.906Z,13.43
2019-06-01T21:51:39.190Z,12.57
2019-06-01T21:54:09.457Z,12.20
2019-06-01T21:56:39.723Z,11.33
2019-06-01T21:59:10.001Z,10.77
2019-06-01T22:01:40.262Z,11.57
2019-06-01T22:04:10.530Z,10.50
2019-06-01T22:06:40.816Z,11.87
2019-06-01T22:09:11.074Z,12.03
2019-06-01T22:11:41.366Z,10.60
2019-06-01T22:14:11.622Z,10.87
2019-06-01T22:16:41.914Z,10.93
2019-06-01T22:19:12.664Z,10.47
2019-06-01T22:21:43.050Z,10.53
2019-06-01T22:24:13.350Z,10.53
2019-06-01T22:26:43.603Z,10.97
2019-06-01T22:29:14.054Z,10.97
2019-06-01T22:31:44.319Z,11.23
2019-06-01T22:34:14.612Z,11.00
2019-06-01T22:36:44.896Z,12.70
2019-06-01T22:39:15.727Z,13.67
2019-06-01T22:41:45.985Z,12.20
2019-06-01T22:44:16.301Z,12.27
2019-06-01T22:46:46.597Z,11.97
2019-06-01T22:49:16.880Z,12.00
2019-06-01T22:51:47.139Z,11.97
2019-06-01T22:54:17.433Z,12.27
2019-06-01T22:56:47.694Z,12.60
2019-06-01T22:59:17.958Z,12.50
2019-06-01T23:01:48.265Z,12.27
2019-06-01T23:04:18.538Z,12.80
2019-06-01T23:06:48.834Z,13.03
2019-06-01T23:09:19.397Z,13.60
2019-06-01T23:11:49.690Z,13.57
2019-06-01T23:14:21.226Z,13.80
2019-06-01T23:16:51.652Z,12.80
2019-06-01T23:19:21.919Z,12.77
2019-06-01T23:21:52.214Z,14.00
2019-06-01T23:24:22.491Z,14.00
2019-06-01T23:26:52.742Z,13.57
2019-06-01T23:29:24.049Z,14.10
2019-06-01T23:31:54.385Z,13.87
2019-06-01T23:34:24.991Z,14.43
2019-06-01T23:36:55.324Z,14.07
2019-06-01T23:39:26.629Z,14.67
2019-06-01T23:41:57.307Z,14.60
2019-06-01T23:44:30.731Z,14.40
2019-06-01T23:46:59.597Z,13.90
2019-06-01T23:49:29.910Z,15.07
2019-06-01T23:52:00.194Z,15.47
2019-06-01T23:54:32.305Z,14.27
2019-06-01T23:57:02.456Z,14.30
2019-06-01T23:59:32.720Z,13.97
